MMLM/LMM METAR and TAF weather

Enter ICAO airport designator
Station Type Date Time Source
MMLM METAR 2019/12/06 03:41 UTC NOAA

MMLM 060341Z 29014KT 10SM FEW120 21/17 A3000 RMK 8/030


Station Type Date Time Source
MMLM Decoded METAR 2019/12/06 03:41 UTC NOAA

Los Mochis Airport, Mexico (MMLM) 25-41N 109-05W
Dec 05, 2019 - 10:41 PM EST / 2019.12.06 0341 UTC
Wind: from the WNW (290 degrees) at 16 MPH (14 KT):0
Visibility: 10 mile(s):0
Sky conditions: mostly clear
Temperature: 69 F (21 C)
Dew Point: 62 F (17 C)
Relative Humidity: 77%
Pressure (altimeter): 30 in. Hg (1015 hPa)
ob: MMLM 060341Z 29014KT 10SM FEW120 21/17 A3000 RMK 8/030
cycle: 3

Station Type Date Time Source
MMLM TAF 2019/12/06 06:42 UTC NOAA

TAF MMLM 060438Z 0606/0706 30008KT P6SM SCT120
FM061800 31015KT P6SM BKN100 BKN250
FM070500 30005KT P6SM SCT120

Example: see airport list